sensor_id;sensor_type;location;lat;lon;timestamp;pressure;altitude;pressure_sealevel;temperature;humidity
68889;BME280;55930;47.412;8.790;2023-05-10T00:02:12;94194.34;;;11.12;100.00
68889;BME280;55930;47.412;8.790;2023-05-10T00:05:33;94196.53;;;11.13;100.00
68889;BME280;55930;47.412;8.790;2023-05-10T00:08:53;94196.09;;;11.21;100.00
68889;BME280;55930;47.412;8.790;2023-05-10T00:12:13;94192.41;;;11.12;100.00
68889;BME280;55930;47.412;8.790;2023-05-10T00:15:34;94198.97;;;11.17;100.00
68889;BME280;55930;47.412;8.790;2023-05-10T00:18:55;94190.91;;;11.06;100.00
68889;BME280;55930;47.412;8.790;2023-05-10T00:22:15;94203.19;;;11.03;100.00
68889;BME280;55930;47.412;8.790;2023-05-10T00:25:35;94197.22;;;11.08;100.00
68889;BME280;55930;47.412;8.790;2023-05-10T00:28:56;94207.34;;;11.10;100.00
68889;BME280;55930;47.412;8.790;2023-05-10T00:32:18;94207.59;;;11.12;100.00
68889;BME280;55930;47.412;8.790;2023-05-10T00:35:38;94207.75;;;11.03;100.00
68889;BME280;55930;47.412;8.790;2023-05-10T00:39:01;94205.41;;;11.10;100.00
68889;BME280;55930;47.412;8.790;2023-05-10T00:42:23;94209.09;;;11.19;100.00
68889;BME280;55930;47.412;8.790;2023-05-10T00:45:44;94208.00;;;10.99;100.00
68889;BME280;55930;47.412;8.790;2023-05-10T00:49:05;94209.44;;;11.00;100.00
68889;BME280;55930;47.412;8.790;2023-05-10T00:52:27;94211.44;;;11.11;100.00
68889;BME280;55930;47.412;8.790;2023-05-10T00:55:48;94218.50;;;11.14;100.00
68889;BME280;55930;47.412;8.790;2023-05-10T00:59:09;94220.38;;;11.08;100.00
68889;BME280;55930;47.412;8.790;2023-05-10T01:02:29;94219.41;;;11.11;100.00
68889;BME280;55930;47.412;8.790;2023-05-10T01:05:52;94224.41;;;11.03;100.00
68889;BME280;55930;47.412;8.790;2023-05-10T01:09:12;94226.97;;;11.18;100.00
68889;BME280;55930;47.412;8.790;2023-05-10T01:12:37;94230.25;;;11.07;100.00
68889;BME280;55930;47.412;8.790;2023-05-10T01:15:59;94228.84;;;11.12;100.00
68889;BME280;55930;47.412;8.790;2023-05-10T01:19:27;94227.16;;;11.09;100.00
68889;BME280;55930;47.412;8.790;2023-05-10T01:34:17;94237.81;;;11.15;100.00
68889;BME280;55930;47.412;8.790;2023-05-10T01:37:45;94238.56;;;11.21;100.00
68889;BME280;55930;47.412;8.790;2023-05-10T01:42:16;94233.16;;;11.09;100.00
68889;BME280;55930;47.412;8.790;2023-05-10T01:45:41;94230.03;;;11.11;100.00
68889;BME280;55930;47.412;8.790;2023-05-10T01:49:29;94229.06;;;11.08;100.00
68889;BME280;55930;47.412;8.790;2023-05-10T01:52:53;94236.72;;;11.01;100.00
68889;BME280;55930;47.412;8.790;2023-05-10T01:56:15;94231.81;;;10.94;100.00
68889;BME280;55930;47.412;8.790;2023-05-10T01:59:40;94242.25;;;11.03;100.00
68889;BME280;55930;47.412;8.790;2023-05-10T02:03:06;94240.34;;;11.03;100.00
68889;BME280;55930;47.412;8.790;2023-05-10T02:06:27;94241.06;;;11.04;100.00
68889;BME280;55930;47.412;8.790;2023-05-10T02:09:48;94234.53;;;10.99;100.00
68889;BME280;55930;47.412;8.790;2023-05-10T02:13:10;94239.09;;;10.99;100.00
68889;BME280;55930;47.412;8.790;2023-05-10T02:16:31;94238.09;;;10.96;100.00
68889;BME280;55930;47.412;8.790;2023-05-10T02:19:53;94236.91;;;10.97;100.00
68889;BME280;55930;47.412;8.790;2023-05-10T02:23:16;94236.13;;;10.91;100.00
68889;BME280;55930;47.412;8.790;2023-05-10T02:26:38;94236.78;;;10.86;100.00
68889;BME280;55930;47.412;8.790;2023-05-10T02:29:58;94236.59;;;10.90;100.00
68889;BME280;55930;47.412;8.790;2023-05-10T02:33:20;94245.34;;;10.96;100.00
68889;BME280;55930;47.412;8.790;2023-05-10T02:36:42;94233.75;;;10.93;100.00
68889;BME280;55930;47.412;8.790;2023-05-10T02:40:04;94245.16;;;10.99;100.00
68889;BME280;55930;47.412;8.790;2023-05-10T02:43:28;94241.63;;;10.88;100.00
68889;BME280;55930;47.412;8.790;2023-05-10T02:46:50;94239.06;;;10.93;100.00
68889;BME280;55930;47.412;8.790;2023-05-10T02:50:10;94236.59;;;10.90;100.00
68889;BME280;55930;47.412;8.790;2023-05-10T02:53:32;94238.16;;;10.76;100.00
68889;BME280;55930;47.412;8.790;2023-05-10T02:56:58;94241.13;;;10.84;100.00
68889;BME280;55930;47.412;8.790;2023-05-10T03:00:24;94232.22;;;10.87;100.00
68889;BME280;55930;47.412;8.790;2023-05-10T03:03:45;94233.69;;;10.88;100.00
68889;BME280;55930;47.412;8.790;2023-05-10T03:07:05;94237.66;;;10.78;100.00
68889;BME280;55930;47.412;8.790;2023-05-10T03:10:27;94229.78;;;10.83;100.00
68889;BME280;55930;47.412;8.790;2023-05-10T03:14:01;94232.16;;;10.81;100.00
68889;BME280;55930;47.412;8.790;2023-05-10T03:17:41;94237.75;;;10.83;100.00
68889;BME280;55930;47.412;8.790;2023-05-10T03:21:12;94242.84;;;10.87;100.00
68889;BME280;55930;47.412;8.790;2023-05-10T03:24:35;94241.63;;;10.88;100.00
68889;BME280;55930;47.412;8.790;2023-05-10T03:27:57;94246.53;;;10.95;100.00
68889;BME280;55930;47.412;8.790;2023-05-10T03:31:18;94250.66;;;10.96;100.00
68889;BME280;55930;47.412;8.790;2023-05-10T03:34:42;94243.16;;;10.94;100.00
68889;BME280;55930;47.412;8.790;2023-05-10T03:38:03;94242.84;;;10.87;100.00
68889;BME280;55930;47.412;8.790;2023-05-10T03:41:24;94246.69;;;10.86;100.00
68889;BME280;55930;47.412;8.790;2023-05-10T03:44:45;94243.84;;;10.89;100.00
68889;BME280;55930;47.412;8.790;2023-05-10T03:48:05;94244.75;;;10.86;100.00
68889;BME280;55930;47.412;8.790;2023-05-10T03:51:28;94256.59;;;10.85;100.00
68889;BME280;55930;47.412;8.790;2023-05-10T03:54:51;94252.25;;;10.88;100.00
68889;BME280;55930;47.412;8.790;2023-05-10T03:58:12;94254.19;;;10.87;100.00
68889;BME280;55930;47.412;8.790;2023-05-10T04:01:33;94260.94;;;10.88;100.00
68889;BME280;55930;47.412;8.790;2023-05-10T04:04:54;94259.25;;;10.85;100.00
68889;BME280;55930;47.412;8.790;2023-05-10T04:08:14;94263.31;;;10.86;100.00
68889;BME280;55930;47.412;8.790;2023-05-10T04:11:36;94258.81;;;10.92;100.00
68889;BME280;55930;47.412;8.790;2023-05-10T04:14:56;94269.97;;;10.96;100.00
68889;BME280;55930;47.412;8.790;2023-05-10T04:18:17;94267.72;;;10.89;100.00
68889;BME280;55930;47.412;8.790;2023-05-10T04:21:37;94262.22;;;10.93;100.00
68889;BME280;55930;47.412;8.790;2023-05-10T04:24:58;94257.41;;;10.97;100.00
68889;BME280;55930;47.412;8.790;2023-05-10T04:28:18;94264.38;;;10.94;100.00
68889;BME280;55930;47.412;8.790;2023-05-10T04:31:38;94269.53;;;11.03;100.00
68889;BME280;55930;47.412;8.790;2023-05-10T04:34:59;94263.31;;;11.06;100.00
68889;BME280;55930;47.412;8.790;2023-05-10T04:38:19;94260.44;;;11.10;100.00
68889;BME280;55930;47.412;8.790;2023-05-10T04:41:40;94257.41;;;10.97;100.00
68889;BME280;55930;47.412;8.790;2023-05-10T04:45:00;94260.03;;;10.91;100.00
68889;BME280;55930;47.412;8.790;2023-05-10T04:48:21;94261.63;;;10.83;100.00
68889;BME280;55930;47.412;8.790;2023-05-10T04:51:41;94262.41;;;10.89;100.00
68889;BME280;55930;47.412;8.790;2023-05-10T04:55:02;94269.97;;;10.96;100.00
68889;BME280;55930;47.412;8.790;2023-05-10T04:58:24;94270.81;;;11.08;100.00
68889;BME280;55930;47.412;8.790;2023-05-10T05:01:45;94281.09;;;11.00;100.00
68889;BME280;55930;47.412;8.790;2023-05-10T05:05:06;94275.00;;;10.94;100.00
68889;BME280;55930;47.412;8.790;2023-05-10T05:08:26;94284.41;;;10.95;100.00
68889;BME280;55930;47.412;8.790;2023-05-10T05:11:47;94284.69;;;10.97;100.00
68889;BME280;55930;47.412;8.790;2023-05-10T05:15:07;94287.06;;;10.95;100.00
68889;BME280;55930;47.412;8.790;2023-05-10T05:18:32;94288.03;;;10.92;100.00
68889;BME280;55930;47.412;8.790;2023-05-10T05:21:52;94294.78;;;10.93;100.00
68889;BME280;55930;47.412;8.790;2023-05-10T05:25:13;94297.44;;;10.93;100.00
68889;BME280;55930;47.412;8.790;2023-05-10T05:28:33;94300.03;;;10.88;100.00
68889;BME280;55930;47.412;8.790;2023-05-10T05:31:57;94306.72;;;10.83;100.00
68889;BME280;55930;47.412;8.790;2023-05-10T05:35:17;94313.09;;;10.91;100.00
68889;BME280;55930;47.412;8.790;2023-05-10T05:38:38;94311.41;;;10.94;100.00
68889;BME280;55930;47.412;8.790;2023-05-10T05:41:58;94308.75;;;10.94;100.00
68889;BME280;55930;47.412;8.790;2023-05-10T05:45:18;94308.13;;;10.99;100.00
68889;BME280;55930;47.412;8.790;2023-05-10T05:48:39;94308.44;;;10.86;100.00
68889;BME280;55930;47.412;8.790;2023-05-10T05:52:00;94314.63;;;10.78;100.00
68889;BME280;55930;47.412;8.790;2023-05-10T05:55:21;94318.81;;;10.84;100.00
68889;BME280;55930;47.412;8.790;2023-05-10T05:58:41;94321.44;;;10.64;100.00
68889;BME280;55930;47.412;8.790;2023-05-10T06:02:02;94317.59;;;10.65;100.00
68889;BME280;55930;47.412;8.790;2023-05-10T06:05:23;94325.28;;;10.63;100.00
68889;BME280;55930;47.412;8.790;2023-05-10T06:08:43;94320.25;;;10.45;100.00
68889;BME280;55930;47.412;8.790;2023-05-10T06:12:04;94325.91;;;10.72;100.00
68889;BME280;55930;47.412;8.790;2023-05-10T06:15:25;94336.31;;;10.76;100.00
68889;BME280;55930;47.412;8.790;2023-05-10T06:18:46;94336.97;;;10.51;100.00
68889;BME280;55930;47.412;8.790;2023-05-10T06:22:06;94332.84;;;10.70;100.00
68889;BME280;55930;47.412;8.790;2023-05-10T06:25:26;94338.22;;;10.55;100.00
68889;BME280;55930;47.412;8.790;2023-05-10T06:28:49;94339.41;;;10.54;100.00
68889;BME280;55930;47.412;8.790;2023-05-10T06:32:10;94341.31;;;10.54;100.00
68889;BME280;55930;47.412;8.790;2023-05-10T06:35:30;94346.28;;;10.46;100.00
68889;BME280;55930;47.412;8.790;2023-05-10T06:38:53;94352.38;;;10.32;100.00
68889;BME280;55930;47.412;8.790;2023-05-10T06:42:14;94357.84;;;10.43;100.00
68889;BME280;55930;47.412;8.790;2023-05-10T06:45:34;94352.75;;;10.60;100.00
68889;BME280;55930;47.412;8.790;2023-05-10T06:48:55;94358.72;;;10.55;100.00
68889;BME280;55930;47.412;8.790;2023-05-10T06:52:15;94352.25;;;10.76;100.00
68889;BME280;55930;47.412;8.790;2023-05-10T06:55:35;94367.31;;;10.85;100.00
68889;BME280;55930;47.412;8.790;2023-05-10T06:58:56;94366.97;;;10.97;100.00
68889;BME280;55930;47.412;8.790;2023-05-10T07:02:16;94365.88;;;11.09;100.00
68889;BME280;55930;47.412;8.790;2023-05-10T07:05:37;94360.94;;;11.43;100.00
68889;BME280;55930;47.412;8.790;2023-05-10T07:08:57;94370.03;;;11.36;100.00
68889;BME280;55930;47.412;8.790;2023-05-10T07:12:17;94355.97;;;11.30;100.00
68889;BME280;55930;47.412;8.790;2023-05-10T07:15:38;94365.47;;;11.63;100.00
68889;BME280;55930;47.412;8.790;2023-05-10T07:18:58;94374.94;;;11.69;100.00
68889;BME280;55930;47.412;8.790;2023-05-10T07:22:19;94373.00;;;11.64;100.00
68889;BME280;55930;47.412;8.790;2023-05-10T07:25:39;94375.03;;;11.75;100.00
68889;BME280;55930;47.412;8.790;2023-05-10T07:29:00;94384.03;;;11.83;100.00
68889;BME280;55930;47.412;8.790;2023-05-10T07:32:20;94379.22;;;12.13;100.00
68889;BME280;55930;47.412;8.790;2023-05-10T07:35:42;94387.41;;;12.09;100.00
68889;BME280;55930;47.412;8.790;2023-05-10T07:39:02;94382.09;;;12.09;100.00
68889;BME280;55930;47.412;8.790;2023-05-10T07:42:23;94388.31;;;12.01;100.00
68889;BME280;55930;47.412;8.790;2023-05-10T07:45:43;94384.13;;;11.68;100.00
68889;BME280;55930;47.412;8.790;2023-05-10T07:49:04;94392.00;;;11.57;100.00
68889;BME280;55930;47.412;8.790;2023-05-10T07:52:24;94391.09;;;11.40;100.00
68889;BME280;55930;47.412;8.790;2023-05-10T07:55:50;94392.34;;;11.70;100.00
68889;BME280;55930;47.412;8.790;2023-05-10T07:59:14;94392.84;;;11.95;100.00
68889;BME280;55930;47.412;8.790;2023-05-10T08:02:37;94388.94;;;11.90;100.00
68889;BME280;55930;47.412;8.790;2023-05-10T08:05:58;94389.50;;;12.00;100.00
68889;BME280;55930;47.412;8.790;2023-05-10T08:09:18;94385.38;;;11.47;100.00
68889;BME280;55930;47.412;8.790;2023-05-10T08:12:45;94393.19;;;11.56;100.00
68889;BME280;55930;47.412;8.790;2023-05-10T08:16:06;94391.50;;;11.79;100.00
68889;BME280;55930;47.412;8.790;2023-05-10T08:19:27;94392.06;;;12.51;100.00
68889;BME280;55930;47.412;8.790;2023-05-10T08:22:47;94396.56;;;13.25;100.00
68889;BME280;55930;47.412;8.790;2023-05-10T08:26:08;94389.88;;;12.55;100.00
68889;BME280;55930;47.412;8.790;2023-05-10T08:29:31;94397.63;;;12.53;100.00
68889;BME280;55930;47.412;8.790;2023-05-10T08:32:51;94400.16;;;12.05;100.00
68889;BME280;55930;47.412;8.790;2023-05-10T08:36:14;94405.34;;;11.42;100.00
68889;BME280;55930;47.412;8.790;2023-05-10T08:39:39;94404.38;;;11.40;100.00
68889;BME280;55930;47.412;8.790;2023-05-10T08:43:07;94406.63;;;11.27;100.00
68889;BME280;55930;47.412;8.790;2023-05-10T08:46:29;94412.56;;;11.16;100.00
68889;BME280;55930;47.412;8.790;2023-05-10T08:49:51;94419.50;;;11.54;100.00
68889;BME280;55930;47.412;8.790;2023-05-10T08:53:13;94418.22;;;11.96;100.00
68889;BME280;55930;47.412;8.790;2023-05-10T08:56:34;94422.09;;;12.26;100.00
68889;BME280;55930;47.412;8.790;2023-05-10T08:59:55;94422.28;;;12.17;100.00
68889;BME280;55930;47.412;8.790;2023-05-10T09:03:15;94420.94;;;12.70;100.00
68889;BME280;55930;47.412;8.790;2023-05-10T09:06:36;94420.56;;;12.88;100.00
68889;BME280;55930;47.412;8.790;2023-05-10T09:09:57;94426.00;;;12.31;100.00
68889;BME280;55930;47.412;8.790;2023-05-10T09:13:19;94432.47;;;12.55;100.00
68889;BME280;55930;47.412;8.790;2023-05-10T09:16:41;94437.16;;;12.72;100.00
68889;BME280;55930;47.412;8.790;2023-05-10T09:20:03;94437.69;;;12.76;100.00
68889;BME280;55930;47.412;8.790;2023-05-10T09:23:24;94431.56;;;13.07;100.00
68889;BME280;55930;47.412;8.790;2023-05-10T09:26:51;94428.75;;;13.27;100.00
68889;BME280;55930;47.412;8.790;2023-05-10T09:33:47;94434.25;;;13.12;100.00
68889;BME280;55930;47.412;8.790;2023-05-10T09:37:07;94426.72;;;13.05;100.00
68889;BME280;55930;47.412;8.790;2023-05-10T09:40:29;94427.53;;;13.22;100.00
68889;BME280;55930;47.412;8.790;2023-05-10T09:43:50;94424.25;;;13.01;100.00
68889;BME280;55930;47.412;8.790;2023-05-10T09:47:17;94427.53;;;13.22;100.00
68889;BME280;55930;47.412;8.790;2023-05-10T09:50:40;94430.78;;;12.52;100.00
68889;BME280;55930;47.412;8.790;2023-05-10T09:54:13;94428.28;;;12.12;100.00
68889;BME280;55930;47.412;8.790;2023-05-10T09:57:34;94424.34;;;12.33;100.00
68889;BME280;55930;47.412;8.790;2023-05-10T10:00:55;94424.69;;;13.37;100.00
68889;BME280;55930;47.412;8.790;2023-05-10T10:04:16;94434.19;;;13.55;100.00
68889;BME280;55930;47.412;8.790;2023-05-10T10:07:37;94426.72;;;13.64;100.00
68889;BME280;55930;47.412;8.790;2023-05-10T10:10:57;94435.44;;;13.70;100.00
68889;BME280;55930;47.412;8.790;2023-05-10T10:14:18;94432.66;;;13.31;100.00
68889;BME280;55930;47.412;8.790;2023-05-10T10:17:39;94432.75;;;13.00;100.00
68889;BME280;55930;47.412;8.790;2023-05-10T10:21:01;94427.03;;;12.39;100.00
68889;BME280;55930;47.412;8.790;2023-05-10T10:24:21;94431.84;;;12.35;100.00
68889;BME280;55930;47.412;8.790;2023-05-10T10:31:26;94427.44;;;12.00;100.00
68889;BME280;55930;47.412;8.790;2023-05-10T10:34:48;94424.19;;;11.65;100.00
68889;BME280;55930;47.412;8.790;2023-05-10T10:38:08;94434.94;;;11.76;100.00
68889;BME280;55930;47.412;8.790;2023-05-10T10:41:34;94429.44;;;11.59;100.00
68889;BME280;55930;47.412;8.790;2023-05-10T10:45:11;94429.44;;;11.59;100.00
68889;BME280;55930;47.412;8.790;2023-05-10T10:48:32;94426.31;;;11.61;100.00
68889;BME280;55930;47.412;8.790;2023-05-10T10:52:21;94430.47;;;11.87;100.00
68889;BME280;55930;47.412;8.790;2023-05-10T10:55:46;94430.59;;;12.30;100.00
68889;BME280;55930;47.412;8.790;2023-05-10T10:59:08;94423.94;;;12.46;100.00
68889;BME280;55930;47.412;8.790;2023-05-10T11:06:02;94427.44;;;12.63;100.00
68889;BME280;55930;47.412;8.790;2023-05-10T11:09:24;94431.50;;;13.49;100.00
68889;BME280;55930;47.412;8.790;2023-05-10T11:13:03;94429.88;;;13.63;100.00
68889;BME280;55930;47.412;8.790;2023-05-10T11:16:27;94433.00;;;13.67;100.00
68889;BME280;55930;47.412;8.790;2023-05-10T11:20:06;94427.09;;;13.35;100.00
68889;BME280;55930;47.412;8.790;2023-05-10T11:23:54;94428.72;;;14.03;100.00
68889;BME280;55930;47.412;8.790;2023-05-10T11:27:18;94432.66;;;14.52;100.00
68889;BME280;55930;47.412;8.790;2023-05-10T11:30:39;94429.59;;;15.11;100.00
68889;BME280;55930;47.412;8.790;2023-05-10T11:34:00;94434.56;;;14.57;100.00
68889;BME280;55930;47.412;8.790;2023-05-10T11:37:21;94422.94;;;15.40;100.00
68889;BME280;55930;47.412;8.790;2023-05-10T11:40:42;94425.31;;;14.91;100.00
68889;BME280;55930;47.412;8.790;2023-05-10T11:44:10;94416.59;;;14.24;100.00
68889;BME280;55930;47.412;8.790;2023-05-10T11:47:31;94426.81;;;13.22;100.00
68889;BME280;55930;47.412;8.790;2023-05-10T11:50:51;94417.84;;;12.40;100.00
68889;BME280;55930;47.412;8.790;2023-05-10T11:54:12;94426.91;;;12.22;100.00
68889;BME280;55930;47.412;8.790;2023-05-10T11:57:33;94431.22;;;11.88;100.00
68889;BME280;55930;47.412;8.790;2023-05-10T12:00:53;94435.38;;;11.95;100.00
68889;BME280;55930;47.412;8.790;2023-05-10T12:04:16;94439.56;;;11.35;100.00
68889;BME280;55930;47.412;8.790;2023-05-10T12:07:37;94443.88;;;11.12;100.00
68889;BME280;55930;47.412;8.790;2023-05-10T12:11:08;94444.72;;;11.64;100.00
68889;BME280;55930;47.412;8.790;2023-05-10T12:14:35;94448.34;;;11.67;100.00
68889;BME280;55930;47.412;8.790;2023-05-10T12:17:56;94443.28;;;12.15;100.00
68889;BME280;55930;47.412;8.790;2023-05-10T12:21:17;94440.53;;;12.67;100.00
68889;BME280;55930;47.412;8.790;2023-05-10T12:24:38;94437.50;;;12.85;100.00
68889;BME280;55930;47.412;8.790;2023-05-10T12:27:59;94447.06;;;12.34;100.00
68889;BME280;55930;47.412;8.790;2023-05-10T12:31:21;94442.38;;;12.23;100.00
68889;BME280;55930;47.412;8.790;2023-05-10T12:34:41;94439.28;;;11.99;100.00
68889;BME280;55930;47.412;8.790;2023-05-10T12:38:25;94442.94;;;12.02;100.00
68889;BME280;55930;47.412;8.790;2023-05-10T12:41:45;94438.91;;;12.80;100.00
68889;BME280;55930;47.412;8.790;2023-05-10T12:45:06;94436.22;;;13.88;100.00
68889;BME280;55930;47.412;8.790;2023-05-10T12:48:28;94431.38;;;14.92;100.00
68889;BME280;55930;47.412;8.790;2023-05-10T12:51:51;94429.06;;;15.87;100.00
68889;BME280;55930;47.412;8.790;2023-05-10T12:55:11;94438.16;;;15.67;100.00
68889;BME280;55930;47.412;8.790;2023-05-10T12:58:32;94431.91;;;14.46;100.00
68889;BME280;55930;47.412;8.790;2023-05-10T13:01:52;94436.47;;;14.79;100.00
68889;BME280;55930;47.412;8.790;2023-05-10T13:05:15;94424.63;;;14.41;100.00
68889;BME280;55930;47.412;8.790;2023-05-10T13:08:35;94426.28;;;14.22;100.00
68889;BME280;55930;47.412;8.790;2023-05-10T13:11:57;94423.16;;;14.57;100.00
68889;BME280;55930;47.412;8.790;2023-05-10T13:15:17;94432.34;;;15.63;95.59
68889;BME280;55930;47.412;8.790;2023-05-10T13:18:37;94431.38;;;16.37;93.31
68889;BME280;55930;47.412;8.790;2023-05-10T13:21:58;94431.13;;;14.79;100.00
68889;BME280;55930;47.412;8.790;2023-05-10T13:25:19;94429.72;;;14.39;100.00
68889;BME280;55930;47.412;8.790;2023-05-10T13:28:39;94424.84;;;14.37;100.00
68889;BME280;55930;47.412;8.790;2023-05-10T13:32:00;94427.97;;;13.97;100.00
68889;BME280;55930;47.412;8.790;2023-05-10T13:35:21;94431.81;;;13.68;100.00
68889;BME280;55930;47.412;8.790;2023-05-10T13:38:41;94420.88;;;13.66;100.00
68889;BME280;55930;47.412;8.790;2023-05-10T13:42:02;94426.28;;;14.05;100.00
68889;BME280;55930;47.412;8.790;2023-05-10T13:45:23;94421.41;;;13.81;100.00
68889;BME280;55930;47.412;8.790;2023-05-10T13:48:43;94427.03;;;14.11;100.00
68889;BME280;55930;47.412;8.790;2023-05-10T13:52:03;94421.22;;;13.14;100.00
68889;BME280;55930;47.412;8.790;2023-05-10T13:55:26;94422.09;;;13.65;100.00
68889;BME280;55930;47.412;8.790;2023-05-10T13:58:49;94418.06;;;14.36;100.00
68889;BME280;55930;47.412;8.790;2023-05-10T14:02:10;94423.47;;;13.32;100.00
68889;BME280;55930;47.412;8.790;2023-05-10T14:05:32;94417.09;;;13.19;100.00
68889;BME280;55930;47.412;8.790;2023-05-10T14:08:53;94415.03;;;13.51;100.00
68889;BME280;55930;47.412;8.790;2023-05-10T14:12:13;94404.16;;;13.49;100.00
68889;BME280;55930;47.412;8.790;2023-05-10T14:15:37;94411.72;;;13.78;100.00
68889;BME280;55930;47.412;8.790;2023-05-10T14:18:57;94402.25;;;13.83;100.00
68889;BME280;55930;47.412;8.790;2023-05-10T14:22:18;94409.31;;;14.75;100.00
68889;BME280;55930;47.412;8.790;2023-05-10T14:25:41;94403.53;;;14.43;100.00
68889;BME280;55930;47.412;8.790;2023-05-10T14:29:02;94412.31;;;15.18;100.00
68889;BME280;55930;47.412;8.790;2023-05-10T14:32:22;94411.25;;;13.79;100.00
68889;BME280;55930;47.412;8.790;2023-05-10T14:35:42;94401.16;;;13.24;100.00
68889;BME280;55930;47.412;8.790;2023-05-10T14:39:03;94407.59;;;13.77;100.00
68889;BME280;55930;47.412;8.790;2023-05-10T14:42:24;94410.19;;;12.95;100.00
68889;BME280;55930;47.412;8.790;2023-05-10T14:45:44;94411.72;;;13.08;100.00
68889;BME280;55930;47.412;8.790;2023-05-10T14:49:04;94410.16;;;12.84;100.00
68889;BME280;55930;47.412;8.790;2023-05-10T14:52:25;94410.44;;;12.55;100.00
68889;BME280;55930;47.412;8.790;2023-05-10T14:55:45;94404.78;;;12.36;100.00
68889;BME280;55930;47.412;8.790;2023-05-10T14:59:06;94405.25;;;12.77;100.00
68889;BME280;55930;47.412;8.790;2023-05-10T15:02:26;94386.38;;;13.23;100.00
68889;BME280;55930;47.412;8.790;2023-05-10T15:05:47;94394.66;;;12.88;100.00
68889;BME280;55930;47.412;8.790;2023-05-10T15:09:10;94386.66;;;13.36;100.00
68889;BME280;55930;47.412;8.790;2023-05-10T15:12:30;94382.75;;;13.26;100.00
68889;BME280;55930;47.412;8.790;2023-05-10T15:15:51;94381.59;;;13.38;100.00
68889;BME280;55930;47.412;8.790;2023-05-10T15:19:13;94384.06;;;13.70;100.00
68889;BME280;55930;47.412;8.790;2023-05-10T15:22:35;94389.19;;;14.07;100.00
68889;BME280;55930;47.412;8.790;2023-05-10T15:25:58;94385.06;;;14.23;100.00
68889;BME280;55930;47.412;8.790;2023-05-10T15:29:18;94385.56;;;14.60;100.00
68889;BME280;55930;47.412;8.790;2023-05-10T15:32:40;94394.75;;;14.65;100.00
68889;BME280;55930;47.412;8.790;2023-05-10T15:36:00;94390.16;;;14.32;100.00
68889;BME280;55930;47.412;8.790;2023-05-10T15:39:20;94399.56;;;14.77;100.00
68889;BME280;55930;47.412;8.790;2023-05-10T15:42:41;94398.16;;;13.98;100.00
68889;BME280;55930;47.412;8.790;2023-05-10T15:46:01;94398.63;;;13.80;100.00
68889;BME280;55930;47.412;8.790;2023-05-10T15:49:22;94404.75;;;13.16;100.00
68889;BME280;55930;47.412;8.790;2023-05-10T15:52:42;94407.50;;;12.84;100.00
68889;BME280;55930;47.412;8.790;2023-05-10T15:56:03;94410.56;;;12.72;100.00
68889;BME280;55930;47.412;8.790;2023-05-10T15:59:24;94410.31;;;12.33;100.00
68889;BME280;55930;47.412;8.790;2023-05-10T16:02:45;94417.97;;;11.94;100.00
68889;BME280;55930;47.412;8.790;2023-05-10T16:06:05;94429.94;;;11.83;100.00
68889;BME280;55930;47.412;8.790;2023-05-10T16:09:26;94444.00;;;11.64;100.00
68889;BME280;55930;47.412;8.790;2023-05-10T16:12:46;94460.97;;;10.91;100.00
68889;BME280;55930;47.412;8.790;2023-05-10T16:16:07;94458.41;;;10.61;100.00
68889;BME280;55930;47.412;8.790;2023-05-10T16:19:27;94462.75;;;10.29;100.00
68889;BME280;55930;47.412;8.790;2023-05-10T16:22:49;94460.97;;;9.97;100.00
68889;BME280;55930;47.412;8.790;2023-05-10T16:26:09;94455.03;;;10.02;100.00
68889;BME280;55930;47.412;8.790;2023-05-10T16:29:32;94455.75;;;9.88;100.00
68889;BME280;55930;47.412;8.790;2023-05-10T16:32:56;94440.03;;;9.84;100.00
68889;BME280;55930;47.412;8.790;2023-05-10T16:36:18;94432.09;;;9.70;100.00
68889;BME280;55930;47.412;8.790;2023-05-10T16:39:39;94432.91;;;9.90;100.00
68889;BME280;55930;47.412;8.790;2023-05-10T16:42:59;94438.56;;;9.69;100.00
68889;BME280;55930;47.412;8.790;2023-05-10T16:46:22;94433.09;;;9.87;100.00
68889;BME280;55930;47.412;8.790;2023-05-10T16:49:42;94437.84;;;9.83;100.00
68889;BME280;55930;47.412;8.790;2023-05-10T16:53:03;94435.75;;;9.72;100.00
68889;BME280;55930;47.412;8.790;2023-05-10T16:56:23;94434.72;;;9.70;100.00
68889;BME280;55930;47.412;8.790;2023-05-10T16:59:43;94447.72;;;9.97;100.00
68889;BME280;55930;47.412;8.790;2023-05-10T17:03:04;94445.22;;;9.49;100.00
68889;BME280;55930;47.412;8.790;2023-05-10T17:06:24;94458.09;;;9.56;100.00
68889;BME280;55930;47.412;8.790;2023-05-10T17:09:45;94451.03;;;9.53;100.00
68889;BME280;55930;47.412;8.790;2023-05-10T17:13:06;94453.19;;;9.64;100.00
68889;BME280;55930;47.412;8.790;2023-05-10T17:16:28;94458.84;;;9.72;100.00
68889;BME280;55930;47.412;8.790;2023-05-10T17:19:50;94456.50;;;10.03;100.00
68889;BME280;55930;47.412;8.790;2023-05-10T17:23:11;94447.59;;;9.77;100.00
68889;BME280;55930;47.412;8.790;2023-05-10T17:26:31;94458.88;;;10.01;100.00
68889;BME280;55930;47.412;8.790;2023-05-10T17:29:56;94453.63;;;9.77;100.00
68889;BME280;55930;47.412;8.790;2023-05-10T17:33:17;94458.50;;;9.79;100.00
68889;BME280;55930;47.412;8.790;2023-05-10T17:36:38;94453.28;;;9.99;100.00
68889;BME280;55930;47.412;8.790;2023-05-10T17:39:59;94454.22;;;9.96;100.00
68889;BME280;55930;47.412;8.790;2023-05-10T17:43:20;94438.94;;;9.91;100.00
68889;BME280;55930;47.412;8.790;2023-05-10T17:46:41;94446.88;;;10.06;100.00
68889;BME280;55930;47.412;8.790;2023-05-10T17:50:01;94449.16;;;9.98;100.00
68889;BME280;55930;47.412;8.790;2023-05-10T17:53:22;94447.25;;;9.84;100.00
68889;BME280;55930;47.412;8.790;2023-05-10T17:56:42;94452.00;;;10.09;100.00
68889;BME280;55930;47.412;8.790;2023-05-10T18:00:03;94454.59;;;10.04;100.00